sensor_id;sensor_type;location;lat;lon;timestamp;pressure;altitude;pressure_sealevel;temperature;humidity
75855;BME280;64502;59.976;30.316;2024-01-11T00:00:20;99711.06;;;1.41;92.05
75855;BME280;64502;59.976;30.316;2024-01-11T00:02:45;99715.50;;;1.39;91.89
75855;BME280;64502;59.976;30.316;2024-01-11T00:05:11;99713.66;;;1.41;91.51
75855;BME280;64502;59.976;30.316;2024-01-11T00:07:36;99697.25;;;1.41;90.85
75855;BME280;64502;59.976;30.316;2024-01-11T00:10:02;99710.19;;;1.42;91.33
75855;BME280;64502;59.976;30.316;2024-01-11T00:12:28;99709.31;;;1.42;90.72
75855;BME280;64502;59.976;30.316;2024-01-11T00:14:54;99718.00;;;1.42;91.53
75855;BME280;64502;59.976;30.316;2024-01-11T00:17:19;99731.09;;;1.39;91.25
75855;BME280;64502;59.976;30.316;2024-01-11T00:19:45;99728.59;;;1.36;91.24
75855;BME280;64502;59.976;30.316;2024-01-11T00:22:10;99717.31;;;1.37;91.88
75855;BME280;64502;59.976;30.316;2024-01-11T00:24:36;99724.16;;;1.40;91.62
75855;BME280;64502;59.976;30.316;2024-01-11T00:27:01;99722.50;;;1.37;92.60
75855;BME280;64502;59.976;30.316;2024-01-11T00:29:27;99717.47;;;1.32;91.86
75855;BME280;64502;59.976;30.316;2024-01-11T00:31:54;99725.22;;;1.34;92.27
75855;BME280;64502;59.976;30.316;2024-01-11T00:34:19;99711.47;;;1.30;91.52
75855;BME280;64502;59.976;30.316;2024-01-11T00:36:44;99722.81;;;1.28;91.61
75855;BME280;64502;59.976;30.316;2024-01-11T00:39:10;99711.53;;;1.29;92.20
75855;BME280;64502;59.976;30.316;2024-01-11T00:41:37;99720.22;;;1.28;92.24
75855;BME280;64502;59.976;30.316;2024-01-11T00:44:02;99728.81;;;1.30;92.83
75855;BME280;64502;59.976;30.316;2024-01-11T00:46:28;99727.06;;;1.30;92.49
75855;BME280;64502;59.976;30.316;2024-01-11T00:48:53;99732.31;;;1.29;92.76
75855;BME280;64502;59.976;30.316;2024-01-11T00:51:18;99728.88;;;1.28;93.04
75855;BME280;64502;59.976;30.316;2024-01-11T00:53:44;99731.41;;;1.30;91.81
75855;BME280;64502;59.976;30.316;2024-01-11T00:56:19;99738.13;;;1.36;93.24
75855;BME280;64502;59.976;30.316;2024-01-11T00:58:45;99731.94;;;1.40;92.83
75855;BME280;64502;59.976;30.316;2024-01-11T01:01:11;99739.66;;;1.41;92.33
75855;BME280;64502;59.976;30.316;2024-01-11T01:03:37;99738.72;;;1.44;92.87
75855;BME280;64502;59.976;30.316;2024-01-11T01:06:03;99731.72;;;1.46;92.56
75855;BME280;64502;59.976;30.316;2024-01-11T01:08:29;99735.03;;;1.49;91.25
75855;BME280;64502;59.976;30.316;2024-01-11T01:10:54;99743.63;;;1.51;91.00
75855;BME280;64502;59.976;30.316;2024-01-11T01:13:20;99741.03;;;1.51;90.24
75855;BME280;64502;59.976;30.316;2024-01-11T01:15:45;99748.66;;;1.56;90.53
75855;BME280;64502;59.976;30.316;2024-01-11T01:18:11;99747.63;;;1.60;89.42
75855;BME280;64502;59.976;30.316;2024-01-11T01:20:37;99752.72;;;1.63;90.08
75855;BME280;64502;59.976;30.316;2024-01-11T01:23:03;99761.31;;;1.65;89.29
75855;BME280;64502;59.976;30.316;2024-01-11T01:25:28;99752.59;;;1.66;89.34
75855;BME280;64502;59.976;30.316;2024-01-11T01:27:53;99765.59;;;1.66;89.43
75855;BME280;64502;59.976;30.316;2024-01-11T01:30:20;99775.13;;;1.67;88.46
75855;BME280;64502;59.976;30.316;2024-01-11T01:32:45;99760.47;;;1.65;88.13
75855;BME280;64502;59.976;30.316;2024-01-11T01:35:11;99767.44;;;1.64;87.29
75855;BME280;64502;59.976;30.316;2024-01-11T01:37:36;99764.00;;;1.64;87.48
75855;BME280;64502;59.976;30.316;2024-01-11T01:40:02;99766.59;;;1.64;87.38
75855;BME280;64502;59.976;30.316;2024-01-11T01:42:27;99783.03;;;1.64;87.23
75855;BME280;64502;59.976;30.316;2024-01-11T01:44:53;99766.53;;;1.65;86.94
75855;BME280;64502;59.976;30.316;2024-01-11T01:47:18;99776.91;;;1.65;87.00
75855;BME280;64502;59.976;30.316;2024-01-11T01:49:44;99772.75;;;1.61;87.02
75855;BME280;64502;59.976;30.316;2024-01-11T01:52:10;99780.72;;;1.57;87.74
75855;BME280;64502;59.976;30.316;2024-01-11T01:54:39;99782.63;;;1.51;88.10
75855;BME280;64502;59.976;30.316;2024-01-11T01:57:05;99821.66;;;1.50;87.34
75855;BME280;64502;59.976;30.316;2024-01-11T01:59:32;99843.44;;;1.47;87.54
75855;BME280;64502;59.976;30.316;2024-01-11T02:01:58;99841.22;;;1.37;86.95
75855;BME280;64502;59.976;30.316;2024-01-11T02:04:23;99837.38;;;1.22;87.03
75855;BME280;64502;59.976;30.316;2024-01-11T02:06:50;99848.19;;;1.09;87.00
75855;BME280;64502;59.976;30.316;2024-01-11T02:09:17;99851.03;;;1.02;87.32
75855;BME280;64502;59.976;30.316;2024-01-11T02:11:44;99856.38;;;0.97;87.46
75855;BME280;64502;59.976;30.316;2024-01-11T02:14:10;99860.03;;;0.92;87.49
75855;BME280;64502;59.976;30.316;2024-01-11T02:16:36;99876.56;;;0.89;86.78
75855;BME280;64502;59.976;30.316;2024-01-11T02:19:03;99876.66;;;0.86;86.38
75855;BME280;64502;59.976;30.316;2024-01-11T02:21:30;99882.59;;;0.89;87.74
75855;BME280;64502;59.976;30.316;2024-01-11T02:24:03;99886.84;;;0.92;86.41
75855;BME280;64502;59.976;30.316;2024-01-11T02:26:29;99899.19;;;0.85;82.77
75855;BME280;64502;59.976;30.316;2024-01-11T02:28:54;99906.16;;;0.83;82.62
75855;BME280;64502;59.976;30.316;2024-01-11T02:31:20;99897.75;;;0.75;80.25
75855;BME280;64502;59.976;30.316;2024-01-11T02:33:46;99900.56;;;0.69;79.87
75855;BME280;64502;59.976;30.316;2024-01-11T02:36:12;99905.06;;;0.62;79.25
75855;BME280;64502;59.976;30.316;2024-01-11T02:38:41;99918.34;;;0.53;78.81
75855;BME280;64502;59.976;30.316;2024-01-11T02:41:07;99922.06;;;0.44;80.02
75855;BME280;64502;59.976;30.316;2024-01-11T02:43:33;99932.66;;;0.37;79.46
75855;BME280;64502;59.976;30.316;2024-01-11T02:46:01;99932.00;;;0.30;79.93
75855;BME280;64502;59.976;30.316;2024-01-11T02:48:30;99949.34;;;0.28;79.56
75855;BME280;64502;59.976;30.316;2024-01-11T02:50:57;99950.31;;;0.24;80.19
75855;BME280;64502;59.976;30.316;2024-01-11T02:53:22;99953.81;;;0.23;80.65
75855;BME280;64502;59.976;30.316;2024-01-11T02:55:49;99972.94;;;0.19;78.48
75855;BME280;64502;59.976;30.316;2024-01-11T02:58:15;99966.06;;;0.18;79.00
75855;BME280;64502;59.976;30.316;2024-01-11T03:00:40;99984.41;;;0.10;75.73
75855;BME280;64502;59.976;30.316;2024-01-11T03:03:05;99984.84;;;-0.05;72.52
75855;BME280;64502;59.976;30.316;2024-01-11T03:05:31;100005.06;;;-0.19;73.62
75855;BME280;64502;59.976;30.316;2024-01-11T03:07:56;100014.84;;;-0.29;74.09
75855;BME280;64502;59.976;30.316;2024-01-11T03:10:22;100015.09;;;-0.40;71.25
75855;BME280;64502;59.976;30.316;2024-01-11T03:12:48;100011.88;;;-0.50;72.48
75855;BME280;64502;59.976;30.316;2024-01-11T03:15:15;100023.31;;;-0.58;73.29
75855;BME280;64502;59.976;30.316;2024-01-11T03:17:41;100034.72;;;-0.65;73.78
75855;BME280;64502;59.976;30.316;2024-01-11T03:20:07;100032.25;;;-0.72;73.71
75855;BME280;64502;59.976;30.316;2024-01-11T03:22:32;100029.78;;;-0.76;73.28
75855;BME280;64502;59.976;30.316;2024-01-11T03:24:58;100040.25;;;-0.81;72.75
75855;BME280;64502;59.976;30.316;2024-01-11T03:27:23;100054.25;;;-0.90;72.19
75855;BME280;64502;59.976;30.316;2024-01-11T03:29:49;100055.25;;;-0.97;72.82
75855;BME280;64502;59.976;30.316;2024-01-11T03:32:15;100052.75;;;-1.00;75.48
75855;BME280;64502;59.976;30.316;2024-01-11T03:34:40;100070.94;;;-1.03;73.33
75855;BME280;64502;59.976;30.316;2024-01-11T03:37:06;100069.28;;;-1.07;71.88
75855;BME280;64502;59.976;30.316;2024-01-11T03:39:33;100076.28;;;-1.12;71.30
75855;BME280;64502;59.976;30.316;2024-01-11T03:41:58;100081.53;;;-1.15;71.73
75855;BME280;64502;59.976;30.316;2024-01-11T03:44:24;100070.41;;;-1.19;70.68
75855;BME280;64502;59.976;30.316;2024-01-11T03:46:49;100083.41;;;-1.22;70.84
75855;BME280;64502;59.976;30.316;2024-01-11T03:49:14;100091.16;;;-1.22;71.36
75855;BME280;64502;59.976;30.316;2024-01-11T03:51:40;100096.41;;;-1.25;70.74
75855;BME280;64502;59.976;30.316;2024-01-11T03:54:05;100102.44;;;-1.26;71.30
75855;BME280;64502;59.976;30.316;2024-01-11T03:56:31;100112.81;;;-1.26;70.73
75855;BME280;64502;59.976;30.316;2024-01-11T03:58:56;100112.94;;;-1.32;71.24
75855;BME280;64502;59.976;30.316;2024-01-11T04:01:22;100119.88;;;-1.34;70.54
75855;BME280;64502;59.976;30.316;2024-01-11T04:03:47;100137.19;;;-1.38;69.80
75855;BME280;64502;59.976;30.316;2024-01-11T04:06:20;100140.75;;;-1.42;67.86
75855;BME280;64502;59.976;30.316;2024-01-11T04:08:47;100146.13;;;-1.54;69.52
75855;BME280;64502;59.976;30.316;2024-01-11T04:11:12;100145.38;;;-1.61;69.26
75855;BME280;64502;59.976;30.316;2024-01-11T04:13:37;100151.66;;;-1.74;69.71
75855;BME280;64502;59.976;30.316;2024-01-11T04:16:07;100172.47;;;-1.82;69.47
75855;BME280;64502;59.976;30.316;2024-01-11T04:18:33;100181.19;;;-1.89;70.08
75855;BME280;64502;59.976;30.316;2024-01-11T04:20:58;100183.91;;;-1.98;69.77
75855;BME280;64502;59.976;30.316;2024-01-11T04:23:24;100185.75;;;-2.05;70.02
75855;BME280;64502;59.976;30.316;2024-01-11T04:25:50;100212.66;;;-2.18;70.32
75855;BME280;64502;59.976;30.316;2024-01-11T04:28:18;100198.09;;;-2.25;69.59
75855;BME280;64502;59.976;30.316;2024-01-11T04:30:43;100211.97;;;-2.31;69.06
75855;BME280;64502;59.976;30.316;2024-01-11T04:33:09;100231.81;;;-2.34;69.01
75855;BME280;64502;59.976;30.316;2024-01-11T04:35:35;100233.56;;;-2.38;69.02
75855;BME280;64502;59.976;30.316;2024-01-11T04:38:01;100229.34;;;-2.42;69.21
75855;BME280;64502;59.976;30.316;2024-01-11T04:40:26;100233.66;;;-2.44;68.35
75855;BME280;64502;59.976;30.316;2024-01-11T04:42:52;100250.94;;;-2.49;67.17
75855;BME280;64502;59.976;30.316;2024-01-11T04:45:17;100251.88;;;-2.55;67.55
75855;BME280;64502;59.976;30.316;2024-01-11T04:47:43;100262.25;;;-2.58;67.10
75855;BME280;64502;59.976;30.316;2024-01-11T04:50:09;100256.25;;;-2.58;68.28
75855;BME280;64502;59.976;30.316;2024-01-11T04:52:34;100290.66;;;-2.59;69.38
75855;BME280;64502;59.976;30.316;2024-01-11T04:55:00;100294.13;;;-2.60;67.37
75855;BME280;64502;59.976;30.316;2024-01-11T04:57:25;100293.31;;;-2.65;67.55
75855;BME280;64502;59.976;30.316;2024-01-11T04:59:50;100289.94;;;-2.69;68.14
75855;BME280;64502;59.976;30.316;2024-01-11T05:02:16;100298.59;;;-2.75;67.57
75855;BME280;64502;59.976;30.316;2024-01-11T05:04:41;100296.91;;;-2.77;69.51
75855;BME280;64502;59.976;30.316;2024-01-11T05:07:07;100312.44;;;-2.80;68.44
75855;BME280;64502;59.976;30.316;2024-01-11T05:09:32;100315.00;;;-2.80;68.44
75855;BME280;64502;59.976;30.316;2024-01-11T05:11:58;100306.41;;;-2.84;68.50
75855;BME280;64502;59.976;30.316;2024-01-11T05:14:23;100324.53;;;-2.85;69.54
75855;BME280;64502;59.976;30.316;2024-01-11T05:16:49;100326.25;;;-2.87;70.90
75855;BME280;64502;59.976;30.316;2024-01-11T05:19:15;100332.34;;;-2.92;71.30
75855;BME280;64502;59.976;30.316;2024-01-11T05:21:41;100344.44;;;-3.01;71.02
75855;BME280;64502;59.976;30.316;2024-01-11T05:24:06;100353.16;;;-3.13;71.82
75855;BME280;64502;59.976;30.316;2024-01-11T05:26:31;100351.53;;;-3.22;72.30
75855;BME280;64502;59.976;30.316;2024-01-11T05:28:57;100346.41;;;-3.29;72.72
75855;BME280;64502;59.976;30.316;2024-01-11T05:31:22;100354.19;;;-3.32;73.56
75855;BME280;64502;59.976;30.316;2024-01-11T05:33:48;100366.19;;;-3.31;74.51
75855;BME280;64502;59.976;30.316;2024-01-11T05:36:14;100367.03;;;-3.31;76.39
75855;BME280;64502;59.976;30.316;2024-01-11T05:38:39;100389.41;;;-3.30;77.53
75855;BME280;64502;59.976;30.316;2024-01-11T05:41:05;100394.56;;;-3.30;77.48
75855;BME280;64502;59.976;30.316;2024-01-11T05:43:31;100387.69;;;-3.31;78.38
75855;BME280;64502;59.976;30.316;2024-01-11T05:45:56;100398.00;;;-3.29;79.34
75855;BME280;64502;59.976;30.316;2024-01-11T05:48:22;100398.84;;;-3.26;79.72
75855;BME280;64502;59.976;30.316;2024-01-11T05:50:47;100390.25;;;-3.26;79.09
75855;BME280;64502;59.976;30.316;2024-01-11T05:53:13;100392.00;;;-3.30;78.26
75855;BME280;64502;59.976;30.316;2024-01-11T05:55:39;100403.19;;;-3.34;77.58
75855;BME280;64502;59.976;30.316;2024-01-11T05:58:05;100410.06;;;-3.36;75.88
75855;BME280;64502;59.976;30.316;2024-01-11T06:00:30;100407.53;;;-3.41;74.83
75855;BME280;64502;59.976;30.316;2024-01-11T06:02:57;100432.47;;;-3.40;75.20
75855;BME280;64502;59.976;30.316;2024-01-11T06:05:22;100426.50;;;-3.46;74.16
75855;BME280;64502;59.976;30.316;2024-01-11T06:07:47;100436.81;;;-3.48;72.70
75855;BME280;64502;59.976;30.316;2024-01-11T06:10:14;100471.22;;;-3.53;71.59
75855;BME280;64502;59.976;30.316;2024-01-11T06:12:40;100456.63;;;-3.61;72.48
75855;BME280;64502;59.976;30.316;2024-01-11T06:15:06;100474.75;;;-3.73;73.05
75855;BME280;64502;59.976;30.316;2024-01-11T06:17:32;100463.59;;;-3.81;72.49
75855;BME280;64502;59.976;30.316;2024-01-11T06:19:58;100482.53;;;-3.94;71.50
75855;BME280;64502;59.976;30.316;2024-01-11T06:22:23;100485.16;;;-4.04;70.82
75855;BME280;64502;59.976;30.316;2024-01-11T06:24:49;100517.78;;;-4.10;71.12
75855;BME280;64502;59.976;30.316;2024-01-11T06:27:14;100497.19;;;-4.16;69.72
75855;BME280;64502;59.976;30.316;2024-01-11T06:29:40;100518.66;;;-4.22;69.76
75855;BME280;64502;59.976;30.316;2024-01-11T06:32:05;100535.84;;;-4.27;68.22
75855;BME280;64502;59.976;30.316;2024-01-11T06:34:32;100539.28;;;-4.36;68.85
75855;BME280;64502;59.976;30.316;2024-01-11T06:36:57;100552.13;;;-4.45;70.05
75855;BME280;64502;59.976;30.316;2024-01-11T06:39:23;100544.41;;;-4.60;69.37
75855;BME280;64502;59.976;30.316;2024-01-11T06:41:48;100548.69;;;-4.73;69.47
75855;BME280;64502;59.976;30.316;2024-01-11T06:44:14;100570.09;;;-4.83;70.45
75855;BME280;64502;59.976;30.316;2024-01-11T06:46:39;100584.69;;;-4.90;69.52
75855;BME280;64502;59.976;30.316;2024-01-11T06:49:09;100577.81;;;-4.94;70.15
75855;BME280;64502;59.976;30.316;2024-01-11T06:51:35;100592.41;;;-4.96;71.29
75855;BME280;64502;59.976;30.316;2024-01-11T06:54:00;100590.66;;;-4.99;70.08
75855;BME280;64502;59.976;30.316;2024-01-11T06:56:26;100588.94;;;-5.00;70.62
75855;BME280;64502;59.976;30.316;2024-01-11T06:58:52;100588.94;;;-5.03;70.59
75855;BME280;64502;59.976;30.316;2024-01-11T07:01:18;100588.06;;;-5.05;70.81
75855;BME280;64502;59.976;30.316;2024-01-11T07:03:44;100603.50;;;-5.00;72.04
75855;BME280;64502;59.976;30.316;2024-01-11T07:06:09;100600.97;;;-4.94;71.99
75855;BME280;64502;59.976;30.316;2024-01-11T07:08:35;100608.72;;;-4.88;72.40
75855;BME280;64502;59.976;30.316;2024-01-11T07:11:01;100613.00;;;-4.81;73.38
75855;BME280;64502;59.976;30.316;2024-01-11T07:13:30;100612.16;;;-4.78;73.25
75855;BME280;64502;59.976;30.316;2024-01-11T07:15:57;100609.59;;;-4.74;73.71
75855;BME280;64502;59.976;30.316;2024-01-11T07:18:23;100621.63;;;-4.74;73.77
75855;BME280;64502;59.976;30.316;2024-01-11T07:20:51;100617.31;;;-4.75;73.86
75855;BME280;64502;59.976;30.316;2024-01-11T07:23:16;100612.19;;;-4.77;73.63
75855;BME280;64502;59.976;30.316;2024-01-11T07:25:42;100621.59;;;-4.79;74.03
75855;BME280;64502;59.976;30.316;2024-01-11T07:28:08;100631.03;;;-4.79;73.25
75855;BME280;64502;59.976;30.316;2024-01-11T07:30:34;100641.31;;;-4.84;72.93
75855;BME280;64502;59.976;30.316;2024-01-11T07:32:59;100646.44;;;-4.88;73.82
75855;BME280;64502;59.976;30.316;2024-01-11T07:35:25;100655.03;;;-4.89;73.07
75855;BME280;64502;59.976;30.316;2024-01-11T07:37:50;100654.13;;;-4.95;73.21
75855;BME280;64502;59.976;30.316;2024-01-11T07:40:16;100650.72;;;-4.95;72.73
75855;BME280;64502;59.976;30.316;2024-01-11T07:42:42;100655.84;;;-4.95;73.56
75855;BME280;64502;59.976;30.316;2024-01-11T07:45:09;100661.03;;;-4.94;73.83
75855;BME280;64502;59.976;30.316;2024-01-11T07:47:39;100666.16;;;-4.92;74.04
75855;BME280;64502;59.976;30.316;2024-01-11T07:50:09;100657.59;;;-4.89;74.24
75855;BME280;64502;59.976;30.316;2024-01-11T07:52:40;100661.03;;;-4.87;74.11
75855;BME280;64502;59.976;30.316;2024-01-11T07:55:10;100671.34;;;-4.84;74.36
75855;BME280;64502;59.976;30.316;2024-01-11T07:57:38;100681.63;;;-4.84;73.31
75855;BME280;64502;59.976;30.316;2024-01-11T08:00:07;100676.47;;;-4.87;73.22
75855;BME280;64502;59.976;30.316;2024-01-11T08:02:33;100679.03;;;-4.91;73.43
75855;BME280;64502;59.976;30.316;2024-01-11T08:04:59;100688.44;;;-4.96;72.68
75855;BME280;64502;59.976;30.316;2024-01-11T08:07:28;100689.28;;;-4.98;73.62
75855;BME280;64502;59.976;30.316;2024-01-11T08:09:54;100691.84;;;-5.03;73.13
75855;BME280;64502;59.976;30.316;2024-01-11T08:12:20;100688.38;;;-5.08;71.16
75855;BME280;64502;59.976;30.316;2024-01-11T08:14:45;100694.34;;;-5.15;72.10
75855;BME280;64502;59.976;30.316;2024-01-11T08:17:14;100698.66;;;-5.16;72.96
75855;BME280;64502;59.976;30.316;2024-01-11T08:19:40;100717.47;;;-5.20;71.99
75855;BME280;64502;59.976;30.316;2024-01-11T08:22:06;100709.75;;;-5.23;71.66
75855;BME280;64502;59.976;30.316;2024-01-11T08:24:32;100712.28;;;-5.27;72.11
75855;BME280;64502;59.976;30.316;2024-01-11T08:27:00;100712.25;;;-5.30;71.69
75855;BME280;64502;59.976;30.316;2024-01-11T08:29:25;100732.84;;;-5.27;72.98
75855;BME280;64502;59.976;30.316;2024-01-11T08:31:51;100727.72;;;-5.24;70.77
75855;BME280;64502;59.976;30.316;2024-01-11T08:34:16;100738.91;;;-5.21;71.36
75855;BME280;64502;59.976;30.316;2024-01-11T08:36:42;100738.91;;;-5.16;71.17
75855;BME280;64502;59.976;30.316;2024-01-11T08:39:07;100720.97;;;-5.10;70.25
75855;BME280;64502;59.976;30.316;2024-01-11T08:41:37;100721.84;;;-5.05;71.61
75855;BME280;64502;59.976;30.316;2024-01-11T08:44:04;100732.16;;;-5.02;71.34
75855;BME280;64502;59.976;30.316;2024-01-11T08:46:33;100738.16;;;-5.01;69.76
75855;BME280;64502;59.976;30.316;2024-01-11T08:48:59;100740.75;;;-4.97;69.31
75855;BME280;64502;59.976;30.316;2024-01-11T08:51:25;100752.78;;;-4.94;69.94
75855;BME280;64502;59.976;30.316;2024-01-11T08:53:52;100749.34;;;-4.96;69.28
75855;BME280;64502;59.976;30.316;2024-01-11T08:56:21;100746.72;;;-5.05;69.70
75855;BME280;64502;59.976;30.316;2024-01-11T08:58:47;100744.97;;;-5.11;68.89
75855;BME280;64502;59.976;30.316;2024-01-11T09:01:15;100744.09;;;-5.15;68.94
75855;BME280;64502;59.976;30.316;2024-01-11T09:03:41;100757.81;;;-5.13;69.49
75855;BME280;64502;59.976;30.316;2024-01-11T09:06:06;100759.50;;;-5.16;68.22
75855;BME280;64502;59.976;30.316;2024-01-11T09:08:32;100762.06;;;-5.19;66.32
75855;BME280;64502;59.976;30.316;2024-01-11T09:10:58;100764.63;;;-5.19;68.53
75855;BME280;64502;59.976;30.316;2024-01-11T09:13:25;100774.03;;;-5.21;68.07
75855;BME280;64502;59.976;30.316;2024-01-11T09:15:53;100775.78;;;-5.20;68.86
75855;BME280;64502;59.976;30.316;2024-01-11T09:18:19;100786.03;;;-5.22;66.94
75855;BME280;64502;59.976;30.316;2024-01-11T09:20:45;100782.63;;;-5.19;68.23
75855;BME280;64502;59.976;30.316;2024-01-11T09:23:11;100782.66;;;-5.16;69.05
75855;BME280;64502;59.976;30.316;2024-01-11T09:25:36;100796.41;;;-5.08;69.08
75855;BME280;64502;59.976;30.316;2024-01-11T09:28:04;100802.50;;;-4.97;67.30
75855;BME280;64502;59.976;30.316;2024-01-11T09:30:29;100802.56;;;-4.87;67.97
75855;BME280;64502;59.976;30.316;2024-01-11T09:32:55;100800.03;;;-4.84;67.86
75855;BME280;64502;59.976;30.316;2024-01-11T09:35:22;100803.41;;;-4.88;67.19
75855;BME280;64502;59.976;30.316;2024-01-11T09:37:48;100817.97;;;-4.95;67.32
75855;BME280;64502;59.976;30.316;2024-01-11T09:40:14;100823.97;;;-4.96;67.63
75855;BME280;64502;59.976;30.316;2024-01-11T09:42:40;100823.97;;;-4.93;66.75
75855;BME280;64502;59.976;30.316;2024-01-11T09:45:09;100839.41;;;-4.92;66.48
75855;BME280;64502;59.976;30.316;2024-01-11T09:47:36;100840.28;;;-4.89;65.77
75855;BME280;64502;59.976;30.316;2024-01-11T09:50:05;100836.03;;;-4.84;65.78
75855;BME280;64502;59.976;30.316;2024-01-11T09:52:31;100845.50;;;-4.82;67.47
75855;BME280;64502;59.976;30.316;2024-01-11T09:55:00;100843.78;;;-4.81;66.40
75855;BME280;64502;59.976;30.316;2024-01-11T09:57:30;100855.81;;;-4.79;66.34
75855;BME280;64502;59.976;30.316;2024-01-11T09:59:58;100860.94;;;-4.80;66.21
75855;BME280;64502;59.976;30.316;2024-01-11T10:02:26;100856.66;;;-4.83;67.98
75855;BME280;64502;59.976;30.316;2024-01-11T10:04:55;100849.81;;;-4.76;67.53
75855;BME280;64502;59.976;30.316;2024-01-11T10:07:22;100858.41;;;-4.76;67.10
75855;BME280;64502;59.976;30.316;2024-01-11T10:09:48;100864.44;;;-4.71;66.13
75855;BME280;64502;59.976;30.316;2024-01-11T10:12:15;100863.66;;;-4.59;67.18
75855;BME280;64502;59.976;30.316;2024-01-11T10:14:40;100874.03;;;-4.45;65.68
75855;BME280;64502;59.976;30.316;2024-01-11T10:17:07;100874.91;;;-4.43;65.47
75855;BME280;64502;59.976;30.316;2024-01-11T10:19:32;100886.09;;;-4.41;66.56
75855;BME280;64502;59.976;30.316;2024-01-11T10:21:58;100894.69;;;-4.42;66.06
75855;BME280;64502;59.976;30.316;2024-01-11T10:24:26;100888.63;;;-4.49;65.81
75855;BME280;64502;59.976;30.316;2024-01-11T10:26:55;100891.97;;;-4.60;65.67
75855;BME280;64502;59.976;30.316;2024-01-11T10:29:21;100917.63;;;-4.77;65.67
75855;BME280;64502;59.976;30.316;2024-01-11T10:31:47;100902.91;;;-4.91;66.58
75855;BME280;64502;59.976;30.316;2024-01-11T10:34:12;100917.44;;;-4.97;68.07
75855;BME280;64502;59.976;30.316;2024-01-11T10:36:38;100912.28;;;-4.97;68.97
75855;BME280;64502;59.976;30.316;2024-01-11T10:39:03;100910.53;;;-5.00;69.44
75855;BME280;64502;59.976;30.316;2024-01-11T10:41:40;100911.34;;;-5.05;69.63
75855;BME280;64502;59.976;30.316;2024-01-11T10:44:21;100921.56;;;-5.13;70.15
75855;BME280;64502;59.976;30.316;2024-01-11T10:46:50;100925.81;;;-5.20;71.53
75855;BME280;64502;59.976;30.316;2024-01-11T10:49:22;100942.06;;;-5.25;71.94
75855;BME280;64502;59.976;30.316;2024-01-11T10:52:09;100947.13;;;-5.30;72.59
75855;BME280;64502;59.976;30.316;2024-01-11T10:54:37;100932.53;;;-5.32;72.86
75855;BME280;64502;59.976;30.316;2024-01-11T10:57:04;100953.94;;;-5.37;73.27
75855;BME280;64502;59.976;30.316;2024-01-11T10:59:34;100961.53;;;-5.47;74.03
75855;BME280;64502;59.976;30.316;2024-01-11T11:02:04;100958.06;;;-5.49;74.60
75855;BME280;64502;59.976;30.316;2024-01-11T11:04:32;100961.44;;;-5.56;74.56
75855;BME280;64502;59.976;30.316;2024-01-11T11:07:01;100965.69;;;-5.59;75.19
75855;BME280;64502;59.976;30.316;2024-01-11T11:09:28;100958.81;;;-5.61;75.63
75855;BME280;64502;59.976;30.316;2024-01-11T11:11:56;100974.28;;;-5.55;76.29
75855;BME280;64502;59.976;30.316;2024-01-11T11:14:24;100976.88;;;-5.56;76.26
75855;BME280;64502;59.976;30.316;2024-01-11T11:16:51;100985.31;;;-5.65;75.76
75855;BME280;64502;59.976;30.316;2024-01-11T11:19:17;100989.63;;;-5.63;76.32
75855;BME280;64502;59.976;30.316;2024-01-11T11:21:45;100992.19;;;-5.63;76.16
75855;BME280;64502;59.976;30.316;2024-01-11T11:24:12;100995.63;;;-5.62;76.71
75855;BME280;64502;59.976;30.316;2024-01-11T11:26:37;100999.94;;;-5.61;76.72
75855;BME280;64502;59.976;30.316;2024-01-11T11:29:04;101002.53;;;-5.58;76.67
75855;BME280;64502;59.976;30.316;2024-01-11T11:31:43;101010.31;;;-5.53;76.88
75855;BME280;64502;59.976;30.316;2024-01-11T11:34:13;101016.31;;;-5.53;76.95
75855;BME280;64502;59.976;30.316;2024-01-11T11:36:40;101020.63;;;-5.49;76.97
75855;BME280;64502;59.976;30.316;2024-01-11T11:39:13;101030.09;;;-5.46;77.08
75855;BME280;64502;59.976;30.316;2024-01-11T11:41:39;101030.06;;;-5.51;77.00
75855;BME280;64502;59.976;30.316;2024-01-11T11:44:05;101031.81;;;-5.48;77.46
75855;BME280;64502;59.976;30.316;2024-01-11T11:46:32;101043.81;;;-5.47;77.34
75855;BME280;64502;59.976;30.316;2024-01-11T11:48:58;101036.09;;;-5.46;78.05
75855;BME280;64502;59.976;30.316;2024-01-11T11:51:25;101042.16;;;-5.41;78.36
75855;BME280;64502;59.976;30.316;2024-01-11T11:53:52;101051.63;;;-5.38;77.32
75855;BME280;64502;59.976;30.316;2024-01-11T11:56:19;101061.09;;;-5.36;77.01
75855;BME280;64502;59.976;30.316;2024-01-11T11:58:46;101063.63;;;-5.39;76.55
75855;BME280;64502;59.976;30.316;2024-01-11T12:01:14;101066.19;;;-5.39;77.42
75855;BME280;64502;59.976;30.316;2024-01-11T12:03:44;101072.19;;;-5.38;77.18
75855;BME280;64502;59.976;30.316;2024-01-11T12:06:19;101080.75;;;-5.39;77.72
75855;BME280;64502;59.976;30.316;2024-01-11T12:08:46;101079.06;;;-5.39;77.38
75855;BME280;64502;59.976;30.316;2024-01-11T12:11:22;101091.03;;;-5.41;77.22
75855;BME280;64502;59.976;30.316;2024-01-11T12:13:49;101096.19;;;-5.38;77.72
75855;BME280;64502;59.976;30.316;2024-01-11T12:16:14;101103.13;;;-5.33;77.55
75855;BME280;64502;59.976;30.316;2024-01-11T12:18:40;101111.81;;;-5.25;78.24
75855;BME280;64502;59.976;30.316;2024-01-11T12:21:07;101105.75;;;-5.27;77.18
75855;BME280;64502;59.976;30.316;2024-01-11T12:23:33;101108.34;;;-5.27;77.64
75855;BME280;64502;59.976;30.316;2024-01-11T12:26:03;101116.94;;;-5.25;77.13
75855;BME280;64502;59.976;30.316;2024-01-11T12:28:33;101122.00;;;-5.30;77.14
75855;BME280;64502;59.976;30.316;2024-01-11T12:30:59;101128.88;;;-5.32;77.02
75855;BME280;64502;59.976;30.316;2024-01-11T12:33:25;101141.72;;;-5.30;77.31
75855;BME280;64502;59.976;30.316;2024-01-11T12:35:51;101142.59;;;-5.31;76.79
75855;BME280;64502;59.976;30.316;2024-01-11T12:38:18;101146.72;;;-5.41;76.63
75855;BME280;64502;59.976;30.316;2024-01-11T12:40:45;101142.41;;;-5.45;76.65